SDG075 LMML-LIRN
Flight info
| Callsign | SDG075 |
|---|---|
| Flight time | N/A |
| Altitude | 34000 |
| Route | GZO P623 OLLEK DCT ARFOL DCT ROMSU DCT UXUTA DCT DIRED DCT NAXES T92 SOR |
| Aircraft | B738/M-SDG075/L |
Departure
| Time | 2026-05-04 09:20 |
|---|---|
| Airport | Malta International Airport (LMML) |
Arrival
| Time | N/A |
|---|---|
| Airport | Naples International Airport (LIRN) |
| Time | Latitude | Longitude | Altitude | Speed | Heading |
|---|---|---|---|---|---|
| 2026-05-04 09:05 | 35.86039 | 14.47993 | 256 ft | 0 kts | 140° |
| 2026-05-04 09:18 | 35.86037 | 14.47998 | 256 ft | 5 kts | 122° |
| 2026-05-04 09:18 | 35.86036 | 14.48058 | 255 ft | 8 kts | 96° |
| 2026-05-04 09:18 | 35.85999 | 14.48106 | 255 ft | 8 kts | 168° |
| 2026-05-04 09:19 | 35.85952 | 14.48078 | 256 ft | 8 kts | 233° |
| 2026-05-04 09:19 | 35.85920 | 14.48024 | 258 ft | 8 kts | 233° |
| 2026-05-04 09:19 | 35.85781 | 14.47790 | 263 ft | 76 kts | 234° |
| 2026-05-04 09:19 | 35.85315 | 14.46982 | 283 ft | 153 kts | 234° |
| 2026-05-04 09:20 | 35.84625 | 14.45772 | 805 ft | 179 kts | 232° |
| 2026-05-04 09:20 | 35.83949 | 14.44526 | 2128 ft | 167 kts | 232° |
| 2026-05-04 09:20 | 35.83266 | 14.43318 | 3004 ft | 186 kts | 233° |
| 2026-05-04 09:20 | 35.82446 | 14.41905 | 3546 ft | 215 kts | 233° |
| 2026-05-04 09:21 | 35.81529 | 14.40334 | 3899 ft | 233 kts | 234° |
| 2026-05-04 09:21 | 35.80571 | 14.38660 | 4263 ft | 254 kts | 239° |
| 2026-05-04 09:21 | 35.80016 | 14.36568 | 4883 ft | 262 kts | 266° |
| 2026-05-04 09:21 | 35.80189 | 14.34285 | 4966 ft | 268 kts | 288° |
| 2026-05-04 09:22 | 35.81065 | 14.32317 | 5203 ft | 268 kts | 311° |
| 2026-05-04 09:22 | 35.82415 | 14.30707 | 6001 ft | 271 kts | 317° |
| 2026-05-04 09:22 | 35.83822 | 14.29150 | 6940 ft | 272 kts | 318° |
| 2026-05-04 09:22 | 35.85239 | 14.27606 | 7876 ft | 272 kts | 319° |
| 2026-05-04 09:23 | 35.86656 | 14.26062 | 8794 ft | 273 kts | 319° |
| 2026-05-04 09:23 | 35.88087 | 14.24500 | 9656 ft | 276 kts | 319° |
| 2026-05-04 09:23 | 35.89535 | 14.22916 | 10426 ft | 281 kts | 319° |
| 2026-05-04 09:23 | 35.91150 | 14.21412 | 10718 ft | 305 kts | 334° |
| 2026-05-04 09:25 | 36.07759 | 14.23684 | 14471 ft | 382 kts | 31° |
| 2026-05-04 09:25 | 36.09974 | 14.25530 | 15126 ft | 385 kts | 31° |
| 2026-05-04 09:26 | 36.12195 | 14.27391 | 15803 ft | 387 kts | 31° |
| 2026-05-04 09:26 | 36.13676 | 14.28629 | 16252 ft | 389 kts | 31° |
| 2026-05-04 09:26 | 36.15927 | 14.30501 | 16870 ft | 392 kts | 30° |
| 2026-05-04 09:26 | 36.18943 | 14.32995 | 17700 ft | 396 kts | 30° |
| 2026-05-04 09:27 | 36.21244 | 14.34892 | 18315 ft | 399 kts | 30° |
| 2026-05-04 09:27 | 36.23562 | 14.36802 | 18861 ft | 402 kts | 30° |
| 2026-05-04 09:27 | 36.25903 | 14.38730 | 19352 ft | 406 kts | 30° |
| 2026-05-04 09:27 | 36.28266 | 14.40676 | 19840 ft | 410 kts | 30° |
| 2026-05-04 09:28 | 36.29877 | 14.42004 | 20176 ft | 412 kts | 30° |
| 2026-05-04 09:28 | 36.32276 | 14.43984 | 20656 ft | 416 kts | 30° |
| 2026-05-04 09:28 | 36.34695 | 14.45982 | 21132 ft | 420 kts | 30° |
| 2026-05-04 09:28 | 36.37138 | 14.48002 | 21608 ft | 423 kts | 30° |
| 2026-05-04 09:29 | 36.39564 | 14.50010 | 22045 ft | 427 kts | 30° |
| 2026-05-04 09:29 | 36.42043 | 14.52063 | 22485 ft | 431 kts | 30° |
| 2026-05-04 09:29 | 36.44547 | 14.54138 | 22925 ft | 434 kts | 30° |
| 2026-05-04 09:29 | 36.47065 | 14.56224 | 23364 ft | 437 kts | 29° |
| 2026-05-04 09:30 | 36.49716 | 14.58073 | 23766 ft | 436 kts | 20° |
| 2026-05-04 09:30 | 36.52557 | 14.59346 | 24140 ft | 433 kts | 10° |
| 2026-05-04 09:30 | 36.55496 | 14.60051 | 24575 ft | 430 kts | 5° |
| 2026-05-04 09:30 | 36.58452 | 14.60666 | 25002 ft | 431 kts | 6° |
| 2026-05-04 09:31 | 36.61417 | 14.61308 | 25393 ft | 433 kts | 6° |
| 2026-05-04 09:31 | 36.64384 | 14.61971 | 25765 ft | 434 kts | 6° |
| 2026-05-04 09:31 | 36.67360 | 14.62651 | 26138 ft | 436 kts | 6° |
| 2026-05-04 09:31 | 36.70348 | 14.63341 | 26506 ft | 437 kts | 6° |
| 2026-05-04 09:32 | 36.73339 | 14.64035 | 26874 ft | 438 kts | 6° |
| 2026-05-04 09:32 | 36.76348 | 14.64732 | 27225 ft | 440 kts | 6° |
| 2026-05-04 09:34 | 36.97561 | 14.69576 | 29908 ft | 439 kts | 5° |
| 2026-05-04 09:34 | 37.00558 | 14.70259 | 30433 ft | 435 kts | 5° |
| 2026-05-04 09:34 | 37.03490 | 14.70927 | 30842 ft | 433 kts | 5° |
| 2026-05-04 09:34 | 37.06450 | 14.71602 | 31197 ft | 432 kts | 5° |
| 2026-05-04 09:35 | 37.09406 | 14.72275 | 31549 ft | 431 kts | 5° |
| 2026-05-04 09:35 | 37.12354 | 14.72948 | 31919 ft | 429 kts | 4° |
| 2026-05-04 09:35 | 37.15285 | 14.73618 | 32300 ft | 427 kts | 4° |
| 2026-05-04 09:35 | 37.18206 | 14.74287 | 32648 ft | 426 kts | 4° |
| 2026-05-04 09:37 | 37.38467 | 14.74181 | 34193 ft | 416 kts | 351° |
| 2026-05-04 09:37 | 37.41351 | 14.73912 | 34195 ft | 415 kts | 351° |
| 2026-05-04 09:38 | 37.47093 | 14.73379 | 34199 ft | 413 kts | 351° |
| 2026-05-04 09:38 | 37.52818 | 14.72846 | 34202 ft | 412 kts | 351° |
| 2026-05-04 09:39 | 37.58527 | 14.72311 | 34196 ft | 412 kts | 351° |
| 2026-05-04 09:39 | 37.64243 | 14.71774 | 34191 ft | 412 kts | 351° |
| 2026-05-04 09:40 | 37.69968 | 14.71235 | 34183 ft | 413 kts | 351° |
| 2026-05-04 09:40 | 37.75705 | 14.70695 | 34183 ft | 415 kts | 351° |
| 2026-05-04 09:42 | 37.98830 | 14.68475 | 34186 ft | 419 kts | 351° |
| 2026-05-04 09:43 | 38.04655 | 14.67856 | 34184 ft | 420 kts | 351° |
| 2026-05-04 09:43 | 38.10472 | 14.67240 | 34180 ft | 420 kts | 351° |
| 2026-05-04 09:44 | 38.16287 | 14.66626 | 34193 ft | 419 kts | 351° |
| 2026-05-04 09:46 | 38.39520 | 14.64172 | 34198 ft | 419 kts | 351° |
| 2026-05-04 09:46 | 38.45294 | 14.63560 | 34188 ft | 419 kts | 351° |
| 2026-05-04 09:47 | 38.51103 | 14.62943 | 34202 ft | 419 kts | 351° |
| 2026-05-04 09:49 | 38.74420 | 14.60457 | 34200 ft | 422 kts | 351° |
| 2026-05-04 09:51 | 38.94945 | 14.58255 | 34200 ft | 424 kts | 351° |
| 2026-05-04 09:51 | 39.00833 | 14.57621 | 34201 ft | 425 kts | 351° |
| 2026-05-04 09:52 | 39.06686 | 14.56990 | 34204 ft | 425 kts | 351° |
| 2026-05-04 09:52 | 39.12584 | 14.56353 | 34204 ft | 426 kts | 351° |
| 2026-05-04 09:53 | 39.18494 | 14.55713 | 34210 ft | 426 kts | 351° |
| 2026-05-04 09:53 | 39.24412 | 14.55072 | 34207 ft | 427 kts | 351° |
| 2026-05-04 09:54 | 39.30340 | 14.54428 | 34205 ft | 428 kts | 351° |
| 2026-05-04 09:54 | 39.36273 | 14.53783 | 34204 ft | 428 kts | 351° |
| 2026-05-04 09:55 | 39.42221 | 14.53135 | 34202 ft | 429 kts | 351° |
| 2026-05-04 09:55 | 39.48170 | 14.52485 | 34204 ft | 429 kts | 351° |
| 2026-05-04 09:56 | 39.54130 | 14.51834 | 34204 ft | 430 kts | 351° |
| 2026-05-04 09:56 | 39.60083 | 14.51064 | 34203 ft | 429 kts | 348° |
| 2026-05-04 09:57 | 39.65993 | 14.49968 | 34204 ft | 429 kts | 348° |
| 2026-05-04 09:57 | 39.68955 | 14.49411 | 34013 ft | 433 kts | 348° |
| 2026-05-04 09:57 | 39.71954 | 14.48861 | 33404 ft | 435 kts | 348° |
| 2026-05-04 09:57 | 39.74950 | 14.48326 | 32710 ft | 434 kts | 348° |
| 2026-05-04 09:58 | 39.77938 | 14.47799 | 31997 ft | 434 kts | 349° |
| 2026-05-04 09:58 | 39.80935 | 14.47273 | 31261 ft | 435 kts | 349° |
| 2026-05-04 09:58 | 39.83933 | 14.46745 | 30517 ft | 436 kts | 349° |
| 2026-05-04 10:00 | 40.04462 | 14.43120 | 26413 ft | 414 kts | 349° |
| 2026-05-04 10:00 | 40.07307 | 14.42615 | 25878 ft | 411 kts | 349° |
| 2026-05-04 10:02 | 40.26834 | 14.39137 | 22027 ft | 398 kts | 350° |
| 2026-05-04 10:04 | 40.45731 | 14.35754 | 18367 ft | 389 kts | 351° |
| 2026-05-04 10:04 | 40.48380 | 14.35278 | 17798 ft | 388 kts | 351° |
| 2026-05-04 10:04 | 40.51046 | 14.34799 | 17272 ft | 386 kts | 351° |
| 2026-05-04 10:04 | 40.53734 | 14.34316 | 16747 ft | 384 kts | 351° |
| 2026-05-04 10:05 | 40.56349 | 14.34129 | 16219 ft | 383 kts | 6° |
| 2026-05-04 10:05 | 40.58902 | 14.35205 | 15790 ft | 381 kts | 27° |
| 2026-05-04 10:05 | 40.61022 | 14.37276 | 15260 ft | 382 kts | 46° |
| 2026-05-04 10:05 | 40.62766 | 14.39852 | 14776 ft | 381 kts | 48° |
| 2026-05-04 10:06 | 40.64531 | 14.42452 | 14249 ft | 381 kts | 47° |
| 2026-05-04 10:06 | 40.66304 | 14.45001 | 14056 ft | 372 kts | 47° |
| 2026-05-04 10:06 | 40.68022 | 14.47458 | 13822 ft | 356 kts | 46° |
| 2026-05-04 10:08 | 40.76649 | 14.60302 | 13042 ft | 280 kts | 47° |
| 2026-05-04 10:08 | 40.77921 | 14.62215 | 12935 ft | 275 kts | 47° |
| 2026-05-04 10:08 | 40.79297 | 14.63905 | 12805 ft | 268 kts | 27° |
| 2026-05-04 10:08 | 40.81042 | 14.64527 | 12670 ft | 259 kts | 358° |
| 2026-05-04 10:09 | 40.82810 | 14.64094 | 12430 ft | 259 kts | 337° |
| 2026-05-04 10:09 | 40.84409 | 14.62975 | 12149 ft | 261 kts | 327° |
| 2026-05-04 10:09 | 40.85947 | 14.61678 | 11869 ft | 264 kts | 327° |
| 2026-05-04 10:09 | 40.87506 | 14.60375 | 11588 ft | 266 kts | 331° |
| 2026-05-04 10:10 | 40.89288 | 14.59789 | 11317 ft | 268 kts | 2° |
| 2026-05-04 10:10 | 40.91056 | 14.60501 | 11165 ft | 268 kts | 31° |
| 2026-05-04 10:10 | 40.92417 | 14.62171 | 10937 ft | 269 kts | 53° |
| 2026-05-04 10:10 | 40.93393 | 14.64248 | 10792 ft | 263 kts | 57° |
| 2026-05-04 10:11 | 40.94323 | 14.66278 | 10641 ft | 260 kts | 57° |
| 2026-05-04 10:11 | 40.95258 | 14.68305 | 10481 ft | 257 kts | 57° |
| 2026-05-04 10:11 | 40.96185 | 14.70313 | 10334 ft | 256 kts | 57° |
| 2026-05-04 10:11 | 40.97141 | 14.72305 | 10163 ft | 257 kts | 56° |
| 2026-05-04 10:12 | 40.98067 | 14.74316 | 10017 ft | 254 kts | 57° |
| 2026-05-04 10:12 | 40.98991 | 14.76308 | 9888 ft | 254 kts | 56° |
| 2026-05-04 10:12 | 40.99919 | 14.78302 | 9726 ft | 253 kts | 56° |
| 2026-05-04 10:12 | 41.00842 | 14.80279 | 9541 ft | 252 kts | 57° |
| 2026-05-04 10:13 | 41.01762 | 14.82257 | 9424 ft | 252 kts | 57° |
| 2026-05-04 10:13 | 41.02688 | 14.84242 | 9201 ft | 254 kts | 56° |
| 2026-05-04 10:13 | 41.03843 | 14.85928 | 9061 ft | 246 kts | 29° |
| 2026-05-04 10:13 | 41.05447 | 14.86576 | 8884 ft | 242 kts | 360° |
| 2026-05-04 10:14 | 41.07050 | 14.86220 | 8857 ft | 229 kts | 342° |
| 2026-05-04 10:14 | 41.08444 | 14.85259 | 8696 ft | 223 kts | 325° |
| 2026-05-04 10:16 | 41.10517 | 14.75819 | 7887 ft | 198 kts | 239° |
| 2026-05-04 10:16 | 41.09796 | 14.74280 | 7769 ft | 195 kts | 240° |
| 2026-05-04 10:16 | 41.09090 | 14.72748 | 7687 ft | 195 kts | 239° |
| 2026-05-04 10:16 | 41.08367 | 14.71217 | 7545 ft | 196 kts | 239° |
| 2026-05-04 10:17 | 41.07645 | 14.69691 | 7432 ft | 196 kts | 239° |
| 2026-05-04 10:17 | 41.06930 | 14.68173 | 7328 ft | 193 kts | 239° |
| 2026-05-04 10:19 | 41.01922 | 14.57556 | 5511 ft | 190 kts | 239° |
| 2026-05-04 10:19 | 41.01228 | 14.56075 | 5209 ft | 188 kts | 236° |
| 2026-05-04 10:19 | 41.00545 | 14.54619 | 4933 ft | 184 kts | 238° |
| 2026-05-04 10:19 | 40.99852 | 14.53215 | 4657 ft | 180 kts | 241° |
| 2026-05-04 10:20 | 40.99176 | 14.51830 | 4392 ft | 178 kts | 238° |
| 2026-05-04 10:20 | 40.98517 | 14.50437 | 4141 ft | 179 kts | 236° |
| 2026-05-04 10:20 | 40.97855 | 14.49046 | 3873 ft | 178 kts | 239° |
| 2026-05-04 10:20 | 40.97185 | 14.47704 | 3612 ft | 175 kts | 240° |
| 2026-05-04 10:21 | 40.96529 | 14.46368 | 3362 ft | 172 kts | 237° |
| 2026-05-04 10:21 | 40.95891 | 14.45028 | 3108 ft | 173 kts | 237° |
| 2026-05-04 10:21 | 40.95244 | 14.43685 | 2855 ft | 173 kts | 240° |
| 2026-05-04 10:21 | 40.94590 | 14.42353 | 2589 ft | 172 kts | 240° |
| 2026-05-04 10:22 | 40.93340 | 14.39691 | 2094 ft | 170 kts | 237° |
| 2026-05-04 10:22 | 40.92705 | 14.38387 | 1865 ft | 164 kts | 240° |
| 2026-05-04 10:22 | 40.92077 | 14.37130 | 1607 ft | 165 kts | 240° |
| 2026-05-04 10:23 | 40.91612 | 14.35729 | 1347 ft | 168 kts | 254° |
| 2026-05-04 10:23 | 40.91425 | 14.34193 | 1085 ft | 171 kts | 267° |
| 2026-05-04 10:25 | 40.95022 | 14.34306 | 3369 ft | 197 kts | 105° |
| 2026-05-04 10:25 | 40.94498 | 14.35954 | 2790 ft | 192 kts | 122° |
| 2026-05-04 10:25 | 40.93674 | 14.37308 | 2211 ft | 187 kts | 139° |
| 2026-05-04 10:25 | 40.92622 | 14.38262 | 1720 ft | 178 kts | 157° |
| 2026-05-04 10:26 | 40.91498 | 14.38698 | 1618 ft | 164 kts | 174° |
| 2026-05-04 10:26 | 40.90415 | 14.39076 | 1883 ft | 155 kts | 154° |
| 2026-05-04 10:26 | 40.89528 | 14.39951 | 2130 ft | 165 kts | 140° |
| 2026-05-04 10:26 | 40.88774 | 14.41101 | 1931 ft | 166 kts | 124° |
| 2026-05-04 10:27 | 40.88239 | 14.42441 | 1770 ft | 161 kts | 113° |
| 2026-05-04 10:27 | 40.87893 | 14.43877 | 1754 ft | 173 kts | 103° |
| 2026-05-04 10:27 | 40.87821 | 14.45450 | 1829 ft | 173 kts | 84° |
| 2026-05-04 10:27 | 40.88145 | 14.46963 | 1839 ft | 170 kts | 64° |
| 2026-05-04 10:28 | 40.88844 | 14.48215 | 1904 ft | 171 kts | 40° |
| 2026-05-04 10:28 | 40.89841 | 14.49101 | 1913 ft | 172 kts | 31° |
| 2026-05-04 10:28 | 40.90859 | 14.49921 | 1876 ft | 171 kts | 28° |
| 2026-05-04 10:28 | 40.91933 | 14.50673 | 1445 ft | 175 kts | 22° |
| 2026-05-04 10:29 | 40.93061 | 14.50976 | 1190 ft | 162 kts | 355° |
| 2026-05-04 10:29 | 40.94121 | 14.50545 | 1021 ft | 161 kts | 326° |
| 2026-05-04 10:29 | 40.94808 | 14.49392 | 845 ft | 164 kts | 288° |
| 2026-05-04 10:29 | 40.94975 | 14.47938 | 735 ft | 161 kts | 271° |
| 2026-05-04 10:30 | 40.94931 | 14.46417 | 881 ft | 166 kts | 262° |
| 2026-05-04 10:30 | 40.94724 | 14.44895 | 1320 ft | 170 kts | 257° |
| 2026-05-04 10:30 | 40.94421 | 14.43413 | 1929 ft | 168 kts | 253° |
| 2026-05-04 10:30 | 40.94040 | 14.41957 | 2137 ft | 168 kts | 249° |
| 2026-05-04 10:31 | 40.93590 | 14.40523 | 2175 ft | 170 kts | 246° |
| 2026-05-04 10:31 | 40.93079 | 14.39109 | 2176 ft | 169 kts | 244° |
| 2026-05-04 10:32 | 40.89510 | 14.30988 | 500 ft | 163 kts | 237° |
| 2026-05-04 10:33 | 40.88868 | 14.29656 | 275 ft | 172 kts | 237° |